Time;durP1;ratioP1;P1;durP2;ratioP2;P2;SDS_P1;SDS_P2;PMS_P1;PMS_P2;Temp;Humidity;BMP_temperature;BMP_pressure;BME280_temperature;BME280_humidity;BME280_pressure;Samples;Min_cycle;Max_cycle;Signal;HPM_P1;HPM_P2
2022/11/20 00:00:38;;;;;;;1999.90;999.90;;;-1.00;99.90;;;;;;5042271;28;20164;-68
2022/11/20 00:03:03;;;;;;;1999.90;999.90;;;-1.00;99.90;;;;;;5025332;28;20136;-68
2022/11/20 00:05:31;;;;;;;1999.90;999.90;;;-0.90;99.90;;;;;;5027997;28;20080;-68
2022/11/20 00:07:57;;;;;;;1999.90;999.90;;;-0.90;99.90;;;;;;5042479;28;20045;-68
2022/11/20 00:10:22;;;;;;;1999.90;999.90;;;-0.90;99.90;;;;;;5026034;28;20036;-68
2022/11/20 00:12:48;;;;;;;1999.90;999.90;;;-0.90;99.90;;;;;;5042600;28;20472;-68
2022/11/20 00:15:13;;;;;;;1999.90;999.90;;;-0.90;99.90;;;;;;5027894;28;20392;-68
2022/11/20 00:17:39;;;;;;;1999.90;999.90;;;-0.90;99.90;;;;;;5038940;28;20045;-68
2022/11/20 00:20:05;;;;;;;1999.90;999.90;;;-0.80;99.90;;;;;;5041871;28;20041;-68
2022/11/20 00:22:30;;;;;;;1999.90;999.90;;;-0.80;99.90;;;;;;5025399;28;20060;-68
2022/11/20 00:24:57;;;;;;;1999.90;999.90;;;-0.70;99.90;;;;;;5046124;28;20053;-68
2022/11/20 00:27:23;;;;;;;1999.90;999.90;;;-0.70;99.90;;;;;;5056818;28;20137;-68
2022/11/20 00:29:48;;;;;;;1999.90;999.90;;;-0.70;99.90;;;;;;5039554;28;20120;-68
2022/11/20 00:32:14;;;;;;;1999.90;999.90;;;-0.70;99.90;;;;;;5040341;28;20048;-68
2022/11/20 00:34:40;;;;;;;1999.90;999.90;;;-0.60;99.90;;;;;;5041241;28;20037;-68
2022/11/20 00:37:05;;;;;;;1999.90;999.90;;;-0.60;99.90;;;;;;5036770;28;20741;-68
2022/11/20 00:39:31;;;;;;;1999.90;999.90;;;-0.60;99.90;;;;;;5045836;28;20044;-68
2022/11/20 00:41:56;;;;;;;1999.90;999.90;;;-0.60;99.90;;;;;;5041109;28;20084;-68
2022/11/20 00:44:22;;;;;;;1999.90;999.90;;;-0.60;99.90;;;;;;5039647;28;20528;-68
2022/11/20 00:46:47;;;;;;;1999.90;999.90;;;-0.50;99.90;;;;;;5040789;28;20043;-68
2022/11/20 00:49:13;;;;;;;1999.90;999.90;;;-0.50;99.90;;;;;;5042983;28;20108;-68
2022/11/20 00:51:38;;;;;;;1999.90;999.90;;;-0.50;99.90;;;;;;5042888;28;20103;-68
2022/11/20 00:54:04;;;;;;;1999.90;999.90;;;-0.50;99.90;;;;;;5045428;28;20031;-68
2022/11/20 00:56:30;;;;;;;1999.90;999.90;;;-0.50;99.90;;;;;;5043124;28;20473;-68
2022/11/20 00:58:58;;;;;;;1999.90;999.90;;;-0.40;99.90;;;;;;5043732;28;20041;-68
2022/11/20 01:01:26;;;;;;;1999.90;999.90;;;-0.40;99.90;;;;;;5036519;28;20076;-68
2022/11/20 01:03:53;;;;;;;1999.90;999.90;;;-0.40;99.90;;;;;;5041171;28;20139;-68
2022/11/20 01:06:21;;;;;;;1999.90;999.90;;;-0.40;99.90;;;;;;5038950;28;20071;-68
2022/11/20 01:08:48;;;;;;;1999.90;999.90;;;-0.40;99.90;;;;;;5037033;28;20041;-68
2022/11/20 01:11:16;;;;;;;1999.90;999.90;;;-0.30;99.90;;;;;;5046665;28;20037;-68
2022/11/20 01:13:42;;;;;;;1999.90;999.90;;;-0.30;99.90;;;;;;5045368;28;20040;-68
2022/11/20 01:16:14;;;;;;;1999.90;999.90;;;-0.40;99.90;;;;;;5042901;28;20044;-68
2022/11/20 01:18:43;;;;;;;1999.90;999.90;;;-0.30;99.90;;;;;;5037112;28;20449;-68
2022/11/20 01:21:11;;;;;;;1999.90;999.90;;;-0.30;99.90;;;;;;5043731;28;20519;-68
2022/11/20 01:23:39;;;;;;;1999.90;999.90;;;-0.30;99.90;;;;;;5038387;28;20386;-68
2022/11/20 01:26:08;;;;;;;1999.90;999.90;;;-0.30;99.90;;;;;;5033651;28;20063;-68
2022/11/20 01:28:34;;;;;;;1999.90;999.90;;;-0.30;99.90;;;;;;5036719;28;20047;-68
2022/11/20 01:31:00;;;;;;;1999.90;999.90;;;-0.30;99.90;;;;;;5035937;28;20555;-68
2022/11/20 01:33:25;;;;;;;1999.90;999.90;;;-0.30;99.90;;;;;;5041106;28;20033;-68
2022/11/20 01:35:52;;;;;;;1999.90;999.90;;;-0.30;99.90;;;;;;5021356;28;20486;-68
2022/11/20 01:38:19;;;;;;;1999.90;999.90;;;-0.30;99.90;;;;;;5051376;28;20429;-68
2022/11/20 01:40:53;;;;;;;1999.90;999.90;;;-0.30;99.90;;;;;;5033469;28;20493;-68
2022/11/20 01:43:22;;;;;;;1999.90;999.90;;;-0.30;99.90;;;;;;5042826;28;20074;-68
2022/11/20 01:46:14;;;;;;;1999.90;999.90;;;-0.20;99.90;;;;;;5045392;28;20041;-68
2022/11/20 01:49:07;;;;;;;1999.90;999.90;;;-0.20;99.90;;;;;;5031751;28;20095;-68
2022/11/20 01:51:39;;;;;;;1999.90;999.90;;;-0.20;99.90;;;;;;5008499;28;20389;-68
2022/11/20 01:54:10;;;;;;;1999.90;999.90;;;-0.20;99.90;;;;;;5039904;28;20041;-68
2022/11/20 01:56:40;;;;;;;1999.90;999.90;;;-0.20;99.90;;;;;;5039356;28;20379;-68
2022/11/20 01:59:09;;;;;;;1999.90;999.90;;;-0.20;99.90;;;;;;5022932;28;20049;-68
2022/11/20 02:01:34;;;;;;;1999.90;999.90;;;-0.20;99.90;;;;;;5038399;28;20471;-68
2022/11/20 02:04:01;;;;;;;1999.90;999.90;;;-0.20;99.90;;;;;;5040049;28;20424;-68
2022/11/20 02:06:36;;;;;;;1999.90;999.90;;;-0.10;99.90;;;;;;5056341;28;20041;-68
2022/11/20 02:09:01;;;;;;;1999.90;999.90;;;-0.10;99.90;;;;;;5039869;28;20073;-68
2022/11/20 02:11:29;;;;;;;1999.90;999.90;;;-0.10;99.90;;;;;;5022609;28;20442;-68
2022/11/20 02:13:55;;;;;;;1999.90;999.90;;;-0.10;99.90;;;;;;5029976;28;20052;-68
2022/11/20 02:16:23;;;;;;;1999.90;999.90;;;-0.10;99.90;;;;;;5059142;28;20049;-68
2022/11/20 02:18:50;;;;;;;1999.90;999.90;;;-0.10;99.90;;;;;;5045320;28;20049;-68
2022/11/20 02:21:34;;;;;;;1999.90;999.90;;;-0.10;99.90;;;;;;5034179;28;20053;-68
2022/11/20 02:24:09;;;;;;;1999.90;999.90;;;-0.10;99.90;;;;;;5039924;28;20044;-68
2022/11/20 02:26:51;;;;;;;1999.90;999.90;;;-0.10;99.90;;;;;;5037132;28;20040;-68
2022/11/20 02:29:37;;;;;;;1999.90;999.90;;;-0.10;99.90;;;;;;5044397;28;20098;-68
2022/11/20 02:32:03;;;;;;;1999.90;999.90;;;-0.10;99.90;;;;;;5040101;28;20038;-68
2022/11/20 02:34:29;;;;;;;1999.90;999.90;;;-0.10;99.90;;;;;;5040788;28;20047;-68
2022/11/20 02:36:56;;;;;;;1999.90;999.90;;;-0.10;99.90;;;;;;5041749;28;20048;-68
2022/11/20 02:39:24;;;;;;;1999.90;999.90;;;0.00;99.90;;;;;;5039210;28;20069;-68
2022/11/20 02:41:52;;;;;;;1999.90;999.90;;;0.00;99.90;;;;;;5021025;28;20041;-68
2022/11/20 02:44:18;;;;;;;1999.90;999.90;;;0.00;99.90;;;;;;5044731;28;20419;-68
2022/11/20 02:46:43;;;;;;;1999.90;999.90;;;0.00;99.90;;;;;;5042832;28;20032;-68
2022/11/20 02:49:09;;;;;;;1999.90;999.90;;;0.00;99.90;;;;;;5019024;28;20053;-68
2022/11/20 02:51:34;;;;;;;1999.90;999.90;;;0.00;99.90;;;;;;5037908;28;20367;-68
2022/11/20 02:54:00;;;;;;;1999.90;999.90;;;0.00;99.90;;;;;;5037886;28;20470;-68
2022/11/20 02:56:26;;;;;;;1999.90;999.90;;;0.00;99.90;;;;;;5022702;28;20469;-68
2022/11/20 02:58:51;;;;;;;1999.90;999.90;;;0.00;99.90;;;;;;5025616;28;20037;-68
2022/11/20 03:01:17;;;;;;;1999.90;999.90;;;0.00;99.90;;;;;;5035633;28;20033;-68
2022/11/20 03:03:42;;;;;;;1999.90;999.90;;;0.00;99.90;;;;;;5038881;28;20130;-68
2022/11/20 03:06:08;;;;;;;1999.90;999.90;;;0.00;99.90;;;;;;5035961;28;20531;-68
2022/11/20 03:08:34;;;;;;;1999.90;999.90;;;0.00;99.90;;;;;;5033832;28;20044;-68
2022/11/20 03:11:03;;;;;;;1999.90;999.90;;;0.10;99.90;;;;;;5037972;28;20408;-68
2022/11/20 03:13:28;;;;;;;1999.90;999.90;;;0.10;99.90;;;;;;5026564;28;20056;-68
2022/11/20 03:15:54;;;;;;;1999.90;999.90;;;0.10;99.90;;;;;;5024737;28;20489;-68
2022/11/20 03:18:20;;;;;;;1999.90;999.90;;;0.10;99.90;;;;;;5035522;28;20048;-68
2022/11/20 03:20:45;;;;;;;1999.90;999.90;;;0.10;99.90;;;;;;5044524;28;20494;-68
2022/11/20 03:23:11;;;;;;;1999.90;999.90;;;0.10;99.90;;;;;;5040689;28;20404;-68
2022/11/20 03:25:36;;;;;;;1999.90;999.90;;;0.10;99.90;;;;;;5024968;28;20048;-68
2022/11/20 03:28:02;;;;;;;1999.90;999.90;;;0.10;99.90;;;;;;5032812;28;20148;-68
2022/11/20 03:30:27;;;;;;;1999.90;999.90;;;0.20;99.90;;;;;;5023112;28;20502;-68
2022/11/20 03:32:54;;;;;;;1999.90;999.90;;;0.20;99.90;;;;;;5034869;28;20115;-68
2022/11/20 03:35:20;;;;;;;1999.90;999.90;;;0.20;99.90;;;;;;5045449;28;20095;-68
2022/11/20 03:37:45;;;;;;;1999.90;999.90;;;0.20;99.90;;;;;;5041056;28;20037;-68
2022/11/20 03:40:11;;;;;;;1999.90;999.90;;;0.20;99.90;;;;;;5020469;28;20072;-68
2022/11/20 03:42:46;;;;;;;1999.90;999.90;;;0.20;99.90;;;;;;5025891;28;20044;-68
2022/11/20 03:45:16;;;;;;;1999.90;999.90;;;0.20;99.90;;;;;;5038912;28;20457;-68
2022/11/20 03:47:42;;;;;;;1999.90;999.90;;;0.20;99.90;;;;;;5036591;28;20103;-68
2022/11/20 03:50:09;;;;;;;1999.90;999.90;;;0.20;99.90;;;;;;5040937;28;20041;-68
2022/11/20 03:52:35;;;;;;;1999.90;999.90;;;0.20;99.90;;;;;;5046086;28;20041;-68
2022/11/20 03:55:00;;;;;;;1999.90;999.90;;;0.20;99.90;;;;;;5015804;28;20087;-68
2022/11/20 03:57:26;;;;;;;1999.90;999.90;;;0.20;99.90;;;;;;5025202;28;20068;-68
2022/11/20 03:59:51;;;;;;;1999.90;999.90;;;0.20;99.90;;;;;;5041232;28;20036;-68
2022/11/20 04:02:17;;;;;;;1999.90;999.90;;;0.20;99.90;;;;;;5038796;28;20334;-68
2022/11/20 04:04:42;;;;;;;1999.90;999.90;;;0.20;99.90;;;;;;5043552;28;20057;-68
2022/11/20 04:07:08;;;;;;;1999.90;999.90;;;0.20;99.90;;;;;;5042044;28;20056;-68
2022/11/20 04:09:33;;;;;;;1999.90;999.90;;;0.30;99.90;;;;;;5029055;28;20123;-68
2022/11/20 04:11:59;;;;;;;1999.90;999.90;;;0.20;99.90;;;;;;5035022;28;20147;-68
2022/11/20 04:14:25;;;;;;;1999.90;999.90;;;0.30;99.90;;;;;;5041294;28;20060;-68
2022/11/20 04:16:50;;;;;;;1999.90;999.90;;;0.30;99.90;;;;;;5041031;28;20511;-68
2022/11/20 04:19:16;;;;;;;1999.90;999.90;;;0.20;99.90;;;;;;5043400;28;20032;-68
2022/11/20 04:21:43;;;;;;;1999.90;999.90;;;0.30;99.90;;;;;;5040992;28;20068;-68
2022/11/20 04:24:10;;;;;;;1999.90;999.90;;;0.30;99.90;;;;;;5042439;28;20095;-68
2022/11/20 04:26:35;;;;;;;1999.90;999.90;;;0.30;99.90;;;;;;5043331;28;20983;-68
2022/11/20 04:29:01;;;;;;;1999.90;999.90;;;0.30;99.90;;;;;;5039249;28;20042;-68
2022/11/20 04:31:29;;;;;;;1999.90;999.90;;;0.30;99.90;;;;;;5041373;28;20198;-68
2022/11/20 04:33:55;;;;;;;1999.90;999.90;;;0.30;99.90;;;;;;5033267;28;20045;-68
2022/11/20 04:36:23;;;;;;;1999.90;999.90;;;0.30;99.90;;;;;;5037768;28;20042;-68
2022/11/20 04:38:53;;;;;;;1999.90;999.90;;;0.30;99.90;;;;;;5033684;28;20191;-68
2022/11/20 04:41:21;;;;;;;1999.90;999.90;;;0.40;99.90;;;;;;5035093;28;20131;-68
2022/11/20 04:43:51;;;;;;;1999.90;999.90;;;0.40;99.90;;;;;;5035308;28;20044;-68
2022/11/20 04:46:18;;;;;;;1999.90;999.90;;;0.30;99.90;;;;;;5036089;28;20055;-68
2022/11/20 04:48:44;;;;;;;1999.90;999.90;;;0.30;99.90;;;;;;5034390;28;20532;-68
2022/11/20 04:51:10;;;;;;;1999.90;999.90;;;0.40;99.90;;;;;;5039913;28;20068;-68
2022/11/20 04:53:35;;;;;;;1999.90;999.90;;;0.40;99.90;;;;;;5043028;28;20063;-68
2022/11/20 04:56:02;;;;;;;1999.90;999.90;;;0.40;99.90;;;;;;5039590;28;20552;-68
2022/11/20 04:58:28;;;;;;;1999.90;999.90;;;0.40;99.90;;;;;;5049591;28;20064;-68
2022/11/20 05:01:00;;;;;;;1999.90;999.90;;;0.40;99.90;;;;;;5042092;28;20068;-68
2022/11/20 05:03:25;;;;;;;1999.90;999.90;;;0.40;99.90;;;;;;5044978;28;20490;-68
2022/11/20 05:05:51;;;;;;;1999.90;999.90;;;0.40;99.90;;;;;;5043454;28;20080;-69
2022/11/20 05:08:16;;;;;;;1999.90;999.90;;;0.40;99.90;;;;;;5040224;28;20125;-68
2022/11/20 05:10:42;;;;;;;1999.90;999.90;;;0.40;99.90;;;;;;5040935;28;20041;-68
2022/11/20 05:13:07;;;;;;;1999.90;999.90;;;0.40;99.90;;;;;;5024732;28;20036;-68
2022/11/20 05:15:33;;;;;;;1999.90;999.90;;;0.40;99.90;;;;;;5032462;28;20640;-68
2022/11/20 05:17:58;;;;;;;1999.90;999.90;;;0.40;99.90;;;;;;5035656;28;20472;-68
2022/11/20 05:20:24;;;;;;;1999.90;999.90;;;0.40;99.90;;;;;;5040780;28;20041;-68
2022/11/20 05:22:49;;;;;;;1999.90;999.90;;;0.40;99.90;;;;;;5042913;28;20033;-68
2022/11/20 05:25:15;;;;;;;1999.90;999.90;;;0.40;99.90;;;;;;5045385;28;20263;-68
2022/11/20 05:27:40;;;;;;;1999.90;999.90;;;0.40;99.90;;;;;;5045027;28;20041;-68
2022/11/20 05:30:07;;;;;;;1999.90;999.90;;;0.40;99.90;;;;;;5043304;28;20484;-68
2022/11/20 05:32:32;;;;;;;1999.90;999.90;;;0.40;99.90;;;;;;5045983;28;20459;-68
2022/11/20 05:34:58;;;;;;;1999.90;999.90;;;0.40;99.90;;;;;;5019257;28;20041;-68
2022/11/20 05:37:24;;;;;;;1999.90;999.90;;;0.40;99.90;;;;;;5042872;28;20036;-68
2022/11/20 05:39:49;;;;;;;1999.90;999.90;;;0.40;99.90;;;;;;5043340;28;20040;-68
2022/11/20 05:42:30;;;;;;;1999.90;999.90;;;0.40;99.90;;;;;;5027590;28;20037;-68
2022/11/20 05:44:56;;;;;;;1999.90;999.90;;;0.50;99.90;;;;;;5034842;28;20033;-68
2022/11/20 05:47:22;;;;;;;1999.90;999.90;;;0.50;99.90;;;;;;5044754;28;20057;-68
2022/11/20 05:49:47;;;;;;;1999.90;999.90;;;0.40;99.90;;;;;;5043973;28;20041;-68
2022/11/20 05:52:13;;;;;;;1999.90;999.90;;;0.50;99.90;;;;;;5039344;28;20485;-68
2022/11/20 05:54:39;;;;;;;1999.90;999.90;;;0.50;99.90;;;;;;5040411;28;20469;-68
2022/11/20 05:57:04;;;;;;;1999.90;999.90;;;0.50;99.90;;;;;;5037225;28;20032;-68
2022/11/20 05:59:30;;;;;;;1999.90;999.90;;;0.50;99.90;;;;;;5035022;28;20119;-68
2022/11/20 06:01:55;;;;;;;1999.90;999.90;;;0.50;99.90;;;;;;5035587;28;20037;-68
2022/11/20 06:04:21;;;;;;;1999.90;999.90;;;0.50;99.90;;;;;;5032055;28;20040;-68
2022/11/20 06:06:46;;;;;;;1999.90;999.90;;;0.50;99.90;;;;;;5036772;28;20120;-68
2022/11/20 06:09:12;;;;;;;1999.90;999.90;;;0.50;99.90;;;;;;5022729;28;20068;-68
2022/11/20 06:11:37;;;;;;;1999.90;999.90;;;0.50;99.90;;;;;;5041409;28;20278;-68
2022/11/20 06:14:03;;;;;;;1999.90;999.90;;;0.50;99.90;;;;;;5032215;28;20081;-68
2022/11/20 06:16:29;;;;;;;1999.90;999.90;;;0.60;99.90;;;;;;5037741;28;20445;-68
2022/11/20 06:18:54;;;;;;;1999.90;999.90;;;0.60;99.90;;;;;;5040059;28;20501;-68
2022/11/20 06:21:21;;;;;;;1999.90;999.90;;;0.60;99.90;;;;;;5038950;28;20144;-68
2022/11/20 06:23:49;;;;;;;1999.90;999.90;;;0.60;99.90;;;;;;5041886;28;20491;-68
2022/11/20 06:26:26;;;;;;;1999.90;999.90;;;0.60;99.90;;;;;;5043548;28;20048;-68
2022/11/20 06:28:52;;;;;;;1999.90;999.90;;;0.60;99.90;;;;;;5045428;28;20132;-68
2022/11/20 06:31:21;;;;;;;1999.90;999.90;;;0.60;99.90;;;;;;5040264;28;20087;-68
2022/11/20 06:33:47;;;;;;;1999.90;999.90;;;0.60;99.90;;;;;;5036440;28;20044;-68
2022/11/20 06:36:14;;;;;;;1999.90;999.90;;;0.60;99.90;;;;;;5019341;28;20037;-68
2022/11/20 06:38:40;;;;;;;1999.90;999.90;;;0.60;99.90;;;;;;5033719;28;20551;-68
2022/11/20 06:41:10;;;;;;;1999.90;999.90;;;0.60;99.90;;;;;;5034138;28;20519;-68
2022/11/20 06:43:36;;;;;;;1999.90;999.90;;;0.60;99.90;;;;;;5042566;28;20481;-68
2022/11/20 06:46:02;;;;;;;1999.90;999.90;;;0.70;99.90;;;;;;5037709;28;20076;-68
2022/11/20 06:48:28;;;;;;;1999.90;999.90;;;0.60;99.90;;;;;;5033102;28;20041;-68
2022/11/20 06:50:54;;;;;;;1999.90;999.90;;;0.70;99.90;;;;;;5035451;28;20045;-68
2022/11/20 06:53:20;;;;;;;1999.90;999.90;;;0.70;99.90;;;;;;5036861;28;20045;-68
2022/11/20 06:55:47;;;;;;;1999.90;999.90;;;0.70;99.90;;;;;;5039973;28;20519;-68
2022/11/20 06:58:14;;;;;;;1999.90;999.90;;;0.70;99.90;;;;;;5039144;28;20552;-68
2022/11/20 07:00:40;;;;;;;1999.90;999.90;;;0.70;99.90;;;;;;5033186;28;20042;-68
2022/11/20 07:03:07;;;;;;;1999.90;999.90;;;0.70;99.90;;;;;;5032229;28;20128;-68
2022/11/20 07:05:33;;;;;;;1999.90;999.90;;;0.70;99.90;;;;;;5034056;28;20041;-68
2022/11/20 07:07:59;;;;;;;1999.90;999.90;;;0.70;99.90;;;;;;5035888;28;20512;-68
2022/11/20 07:10:25;;;;;;;1999.90;999.90;;;0.70;99.90;;;;;;5036351;28;20049;-68
2022/11/20 07:12:54;;;;;;;1999.90;999.90;;;0.70;99.90;;;;;;5053647;28;20075;-68
2022/11/20 07:15:22;;;;;;;1999.90;999.90;;;0.70;99.90;;;;;;5041343;28;20083;-68
2022/11/20 07:17:47;;;;;;;1999.90;999.90;;;0.70;99.90;;;;;;5052573;28;20509;-68
2022/11/20 07:20:14;;;;;;;1999.90;999.90;;;0.70;99.90;;;;;;5019734;28;20054;-68
2022/11/20 07:22:39;;;;;;;1999.90;999.90;;;0.80;99.90;;;;;;5034088;28;20040;-68
2022/11/20 07:25:05;;;;;;;1999.90;999.90;;;0.80;99.90;;;;;;5042765;28;20527;-68
2022/11/20 07:27:31;;;;;;;1999.90;999.90;;;0.80;99.90;;;;;;5064115;28;20048;-68
2022/11/20 07:29:57;;;;;;;1999.90;999.90;;;0.80;99.90;;;;;;5038579;28;20547;-68
2022/11/20 07:32:23;;;;;;;1999.90;999.90;;;0.80;99.90;;;;;;5045289;28;20076;-68
2022/11/20 07:34:49;;;;;;;1999.90;999.90;;;0.90;99.90;;;;;;5039410;28;20108;-69
2022/11/20 07:37:15;;;;;;;1999.90;999.90;;;0.90;99.90;;;;;;5038248;28;20199;-68
2022/11/20 07:39:40;;;;;;;1999.90;999.90;;;0.90;99.90;;;;;;5044937;28;20455;-68
2022/11/20 07:42:07;;;;;;;1999.90;999.90;;;0.90;99.90;;;;;;5024818;28;20103;-68
2022/11/20 07:44:32;;;;;;;1999.90;999.90;;;0.90;99.90;;;;;;5058609;28;20079;-68
2022/11/20 07:46:58;;;;;;;1999.90;999.90;;;0.90;99.90;;;;;;5044123;28;20048;-68
2022/11/20 07:49:24;;;;;;;1999.90;999.90;;;0.90;99.90;;;;;;5044524;28;20118;-68
2022/11/20 07:51:55;;;;;;;1999.90;999.90;;;0.90;99.90;;;;;;5042833;28;20076;-68
2022/11/20 07:54:22;;;;;;;1999.90;999.90;;;0.90;99.90;;;;;;5042696;28;20041;-68
2022/11/20 07:56:48;;;;;;;1999.90;999.90;;;0.90;99.90;;;;;;5042252;28;20029;-68
2022/11/20 07:59:18;;;;;;;1999.90;999.90;;;0.90;99.90;;;;;;5053955;28;20160;-68
2022/11/20 08:01:43;;;;;;;1999.90;999.90;;;0.90;99.90;;;;;;5042040;28;20400;-68
2022/11/20 08:04:09;;;;;;;1999.90;999.90;;;0.90;99.90;;;;;;5042218;28;20124;-68
2022/11/20 08:06:36;;;;;;;1999.90;999.90;;;0.90;99.90;;;;;;5040602;28;20120;-68
2022/11/20 08:09:02;;;;;;;1999.90;999.90;;;0.90;99.90;;;;;;5039048;28;20335;-68
2022/11/20 08:14:12;;;;;;;1999.90;999.90;;;1.00;99.90;;;;;;5042548;28;20040;-68
2022/11/20 08:16:56;;;;;;;1999.90;999.90;;;1.00;99.90;;;;;;5039989;28;20507;-68
2022/11/20 08:19:22;;;;;;;1999.90;999.90;;;1.00;99.90;;;;;;5019989;28;20060;-68
2022/11/20 08:21:47;;;;;;;1999.90;999.90;;;1.00;99.90;;;;;;5041594;28;20041;-68
2022/11/20 08:24:13;;;;;;;1999.90;999.90;;;1.00;99.90;;;;;;5041662;28;20693;-68
2022/11/20 08:26:39;;;;;;;1999.90;999.90;;;1.00;99.90;;;;;;5037546;28;20048;-68
2022/11/20 08:29:05;;;;;;;1999.90;999.90;;;0.90;99.90;;;;;;5036835;28;20045;-69
2022/11/20 08:31:32;;;;;;;1999.90;999.90;;;1.00;99.90;;;;;;5041378;28;20086;-68
2022/11/20 08:33:58;;;;;;;1999.90;999.90;;;1.00;99.90;;;;;;5038918;28;20029;-68
2022/11/20 08:36:24;;;;;;;1999.90;999.90;;;1.00;99.90;;;;;;5034962;28;20576;-68
2022/11/20 08:38:55;;;;;;;1999.90;999.90;;;1.00;99.90;;;;;;5039466;28;20059;-68
2022/11/20 08:41:24;;;;;;;1999.90;999.90;;;1.00;99.90;;;;;;5042700;28;20128;-68
2022/11/20 08:43:50;;;;;;;1999.90;999.90;;;1.00;99.90;;;;;;5025627;28;20043;-68
2022/11/20 08:46:16;;;;;;;1999.90;999.90;;;1.00;99.90;;;;;;5043634;28;20044;-70
2022/11/20 08:48:42;;;;;;;1999.90;999.90;;;1.00;99.90;;;;;;5043229;28;20037;-68
2022/11/20 08:51:08;;;;;;;1999.90;999.90;;;1.00;99.90;;;;;;5055331;28;20551;-68
2022/11/20 08:53:34;;;;;;;1999.90;999.90;;;1.00;99.90;;;;;;5043401;28;20109;-69
2022/11/20 08:55:59;;;;;;;1999.90;999.90;;;1.10;99.90;;;;;;5038537;28;20056;-68
2022/11/20 08:58:26;;;;;;;1999.90;999.90;;;1.10;99.90;;;;;;5042596;28;20405;-68
2022/11/20 09:00:51;;;;;;;1999.90;999.90;;;1.10;99.90;;;;;;5037856;28;20084;-69
2022/11/20 09:03:17;;;;;;;1999.90;999.90;;;1.10;99.90;;;;;;5038031;28;20080;-68
2022/11/20 09:05:43;;;;;;;1999.90;999.90;;;1.10;99.90;;;;;;5041673;28;20045;-69
2022/11/20 09:08:08;;;;;;;1999.90;999.90;;;1.10;99.90;;;;;;5045424;28;20465;-68
2022/11/20 09:10:34;;;;;;;1999.90;999.90;;;1.10;99.90;;;;;;5036589;28;20038;-69
2022/11/20 09:13:01;;;;;;;1999.90;999.90;;;1.10;99.90;;;;;;5042222;28;20481;-68
2022/11/20 09:15:27;;;;;;;1999.90;999.90;;;1.20;99.90;;;;;;5041595;28;20464;-69
2022/11/20 09:17:53;;;;;;;1999.90;999.90;;;1.20;99.90;;;;;;5040241;28;20068;-68
2022/11/20 09:20:19;;;;;;;1999.90;999.90;;;1.20;99.90;;;;;;5035791;28;20053;-68
2022/11/20 09:22:44;;;;;;;1999.90;999.90;;;1.20;99.90;;;;;;5017122;28;20049;-69
2022/11/20 09:25:10;;;;;;;1999.90;999.90;;;1.30;99.90;;;;;;5035743;28;20520;-68
2022/11/20 09:27:35;;;;;;;1999.90;999.90;;;1.30;99.90;;;;;;5038890;28;20098;-68
2022/11/20 09:30:02;;;;;;;1999.90;999.90;;;1.30;99.90;;;;;;5032406;28;20120;-68
2022/11/20 09:32:27;;;;;;;1999.90;999.90;;;1.40;99.90;;;;;;5024559;28;20505;-69
2022/11/20 09:34:53;;;;;;;1999.90;999.90;;;1.40;99.90;;;;;;5043302;28;20045;-69
2022/11/20 09:37:18;;;;;;;1999.90;999.90;;;1.40;99.90;;;;;;5039954;28;20491;-68
2022/11/20 09:39:44;;;;;;;1999.90;999.90;;;1.50;99.90;;;;;;5036867;28;20443;-68
2022/11/20 09:42:35;;;;;;;1999.90;999.90;;;1.60;99.90;;;;;;5034113;28;20816;-68
2022/11/20 09:45:15;;;;;;;1999.90;999.90;;;1.60;99.90;;;;;;5036620;28;20041;-68
2022/11/20 09:48:13;;;;;;;1999.90;999.90;;;1.60;99.90;;;;;;5041131;28;20098;-68
2022/11/20 09:50:59;;;;;;;1999.90;999.90;;;1.70;99.90;;;;;;5049222;28;20060;-68
2022/11/20 09:53:36;;;;;;;1999.90;999.90;;;1.70;99.90;;;;;;5024344;28;20156;-68
2022/11/20 09:56:04;;;;;;;1999.90;999.90;;;1.80;99.90;;;;;;5039652;28;20064;-68
2022/11/20 09:58:41;;;;;;;1999.90;999.90;;;1.90;99.90;;;;;;5026921;28;20045;-69
2022/11/20 10:01:14;;;;;;;1999.90;999.90;;;1.80;99.90;;;;;;5039994;28;20040;-68
2022/11/20 10:03:57;;;;;;;1999.90;999.90;;;1.90;99.90;;;;;;5041065;28;20051;-69
2022/11/20 10:06:53;;;;;;;1999.90;999.90;;;2.00;99.90;;;;;;5040470;28;20043;-68
2022/11/20 10:09:38;;;;;;;1999.90;999.90;;;2.00;99.90;;;;;;5033342;28;20057;-68
2022/11/20 10:12:14;;;;;;;1999.90;999.90;;;2.10;99.90;;;;;;5021923;28;20129;-68
2022/11/20 10:14:51;;;;;;;1999.90;999.90;;;2.10;99.90;;;;;;5037612;28;20055;-68
2022/11/20 10:17:46;;;;;;;1999.90;999.90;;;2.20;99.90;;;;;;5031409;28;20049;-68
2022/11/20 10:20:48;;;;;;;1999.90;999.90;;;2.20;99.90;;;;;;5028766;28;20076;-69
2022/11/20 10:23:27;;;;;;;1999.90;999.90;;;2.30;99.90;;;;;;5021992;28;20122;-68
2022/11/20 10:26:11;;;;;;;1999.90;999.90;;;2.30;99.90;;;;;;5033165;28;20056;-68
2022/11/20 10:28:36;;;;;;;1999.90;999.90;;;2.40;99.90;;;;;;5043317;28;20444;-68
2022/11/20 10:31:11;;;;;;;1999.90;999.90;;;2.40;99.90;;;;;;5039976;28;20029;-68
2022/11/20 10:33:41;;;;;;;1999.90;999.90;;;2.40;99.90;;;;;;5039494;28;20374;-68
2022/11/20 10:36:20;;;;;;;1999.90;999.90;;;2.40;99.90;;;;;;5019419;28;20049;-68
2022/11/20 10:38:59;;;;;;;1999.90;999.90;;;2.40;99.90;;;;;;5039219;28;20056;-68
2022/11/20 10:41:29;;;;;;;1999.90;999.90;;;2.40;99.90;;;;;;5037914;28;20127;-68
2022/11/20 10:44:14;;;;;;;1999.90;999.90;;;2.40;99.90;;;;;;5033773;28;20048;-68
2022/11/20 10:46:46;;;;;;;1999.90;999.90;;;2.40;99.90;;;;;;5037026;28;20543;-68
2022/11/20 10:49:32;;;;;;;1999.90;999.90;;;2.40;99.90;;;;;;5036309;28;20547;-68
2022/11/20 10:52:10;;;;;;;1999.90;999.90;;;2.30;99.90;;;;;;5037983;28;20045;-69
2022/11/20 10:55:07;;;;;;;1999.90;999.90;;;2.20;99.90;;;;;;5035823;28;20044;-68
2022/11/20 10:57:47;;;;;;;1999.90;999.90;;;2.20;99.90;;;;;;5036953;28;20049;-68
2022/11/20 11:00:14;;;;;;;1999.90;999.90;;;2.10;99.90;;;;;;5021962;28;20054;-68
2022/11/20 11:02:53;;;;;;;1999.90;999.90;;;2.10;99.90;;;;;;5038182;28;20091;-68
2022/11/20 11:05:31;;;;;;;1999.90;999.90;;;2.10;99.90;;;;;;5043448;28;20052;-69
2022/11/20 11:07:58;;;;;;;1999.90;999.90;;;2.10;99.90;;;;;;5039003;28;20390;-68
2022/11/20 11:10:52;;;;;;;1999.90;999.90;;;2.10;99.90;;;;;;5041805;28;20037;-68
2022/11/20 11:13:27;;;;;;;1999.90;999.90;;;2.10;99.90;;;;;;5038926;28;20074;-68
2022/11/20 11:15:52;;;;;;;1999.90;999.90;;;2.10;99.90;;;;;;5032695;28;20127;-68
2022/11/20 11:18:30;;;;;;;1999.90;999.90;;;2.20;99.90;;;;;;5021523;28;20140;-68
2022/11/20 11:20:57;;;;;;;1999.90;999.90;;;2.20;99.90;;;;;;5036644;28;20045;-68
2022/11/20 11:23:33;;;;;;;1999.90;999.90;;;2.30;99.90;;;;;;5022991;28;20067;-68
2022/11/20 11:26:00;;;;;;;1999.90;999.90;;;2.30;99.90;;;;;;5037487;28;20065;-68
2022/11/20 11:28:27;;;;;;;1999.90;999.90;;;2.40;99.90;;;;;;5040473;28;20519;-68
2022/11/20 11:30:54;;;;;;;1999.90;999.90;;;2.40;99.90;;;;;;5048812;28;20049;-69
2022/11/20 11:33:25;;;;;;;1999.90;999.90;;;2.50;99.90;;;;;;5030112;28;20034;-68
2022/11/20 11:35:53;;;;;;;1999.90;999.90;;;2.60;99.90;;;;;;5035478;28;20099;-68
2022/11/20 11:38:27;;;;;;;1999.90;999.90;;;2.60;99.90;;;;;;5034226;28;20041;-68
2022/11/20 11:40:54;;;;;;;1999.90;999.90;;;2.70;99.90;;;;;;5042210;28;20420;-68
2022/11/20 11:46:27;;;;;;;1999.90;999.90;;;2.80;99.90;;;;;;5051029;28;20053;-68
2022/11/20 11:49:04;;;;;;;1999.90;999.90;;;2.90;99.90;;;;;;5017565;28;20040;-68
2022/11/20 11:51:57;;;;;;;1999.90;999.90;;;2.90;99.90;;;;;;5034332;28;20251;-68
2022/11/20 11:54:39;;;;;;;1999.90;999.90;;;3.00;99.90;;;;;;5029569;28;20098;-68
2022/11/20 11:57:22;;;;;;;1999.90;999.90;;;3.10;99.90;;;;;;5032563;28;20038;-68
2022/11/20 11:59:51;;;;;;;;;;;3.30;99.90;;;;;;5053579;28;20128;-68
2022/11/20 12:02:48;;;;;;;1999.90;999.90;;;3.50;99.90;;;;;;5032854;28;19991;-68
2022/11/20 12:05:43;;;;;;;1999.90;999.90;;;3.80;99.90;;;;;;5038501;28;20041;-68
2022/11/20 12:08:29;;;;;;;1999.90;999.90;;;4.10;99.90;;;;;;5033113;28;20218;-68
2022/11/20 12:10:57;;;;;;;1999.90;999.90;;;4.20;99.90;;;;;;5039941;28;20044;-68
2022/11/20 12:13:47;;;;;;;1999.90;999.90;;;4.20;99.90;;;;;;5035276;28;20041;-68
2022/11/20 12:16:16;;;;;;;1999.90;999.90;;;4.30;99.90;;;;;;5039841;28;20505;-69
2022/11/20 12:18:42;;;;;;;1999.90;999.90;;;4.40;99.90;;;;;;5035306;28;20057;-68
2022/11/20 12:21:23;;;;;;;1999.90;999.90;;;4.50;99.90;;;;;;5018674;28;20049;-68